Time;durP1;ratioP1;P1;durP2;ratioP2;P2;SDS_P1;SDS_P2;PMS_P1;PMS_P2;Temp;Humidity;BMP_temperature;BMP_pressure;BME280_temperature;BME280_humidity;BME280_pressure;Samples;Min_cycle;Max_cycle;Signal;HPM_P1;HPM_P2
2024/03/20 00:05:59;;;;;;;34.97;17.98;;;5.20;99.90;;;;;;20823704;28;20079;-42
2024/03/20 00:16:01;;;;;;;29.20;16.27;;;5.10;99.90;;;;;;20822668;28;20500;-42
2024/03/20 00:26:03;;;;;;;31.20;16.75;;;4.80;99.90;;;;;;20822626;28;20033;-41
2024/03/20 00:36:05;;;;;;;34.95;16.70;;;4.30;99.90;;;;;;20855230;28;20041;-40
2024/03/20 00:46:07;;;;;;;38.47;18.38;;;3.70;99.90;;;;;;20815982;28;20124;-39
2024/03/20 00:56:09;;;;;;;34.25;17.38;;;3.30;99.90;;;;;;20761890;28;20462;-40
2024/03/20 01:06:11;;;;;;;38.88;18.55;;;3.00;99.90;;;;;;20874355;28;20049;-39
2024/03/20 01:16:13;;;;;;;38.00;18.98;;;2.90;99.90;;;;;;20764022;28;20077;-39
2024/03/20 01:26:15;;;;;;;36.92;17.63;;;2.70;99.90;;;;;;20777998;28;20033;-39
2024/03/20 01:36:16;;;;;;;38.80;16.05;;;2.60;99.90;;;;;;20879958;28;20562;-39
2024/03/20 01:46:32;;;;;;;36.70;16.67;;;2.60;99.90;;;;;;20917188;28;20032;-39
2024/03/20 01:56:34;;;;;;;27.50;13.05;;;2.50;99.90;;;;;;20856181;28;20025;-39
2024/03/20 02:06:37;;;;;;;37.67;15.30;;;2.40;99.90;;;;;;20815347;28;20044;-39
2024/03/20 02:16:38;;;;;;;39.90;17.27;;;2.20;99.90;;;;;;20831493;28;20030;-39
2024/03/20 02:26:40;;;;;;;40.17;17.63;;;2.10;99.90;;;;;;20831203;28;20038;-39
2024/03/20 02:36:46;;;;;;;44.35;19.05;;;2.10;99.90;;;;;;20854971;28;20069;-39
2024/03/20 02:46:48;;;;;;;45.90;20.02;;;2.20;99.90;;;;;;20769746;28;20037;-39
2024/03/20 02:56:49;;;;;;;56.55;23.60;;;2.30;99.90;;;;;;20828617;28;20029;-39
2024/03/20 03:06:54;;;;;;;47.75;20.60;;;2.50;99.90;;;;;;20877854;28;20095;-39
2024/03/20 03:16:56;;;;;;;40.78;19.13;;;2.90;99.90;;;;;;20750153;28;20428;-39
2024/03/20 03:26:58;;;;;;;36.85;17.67;;;3.30;99.90;;;;;;20807379;28;20038;-40
2024/03/20 03:37:00;;;;;;;29.88;15.52;;;3.70;99.90;;;;;;20881753;28;20048;-36
2024/03/20 03:47:02;;;;;;;32.05;16.52;;;3.90;99.90;;;;;;20887241;28;20432;-39
2024/03/20 03:57:04;;;;;;;24.65;14.13;;;4.10;99.90;;;;;;20812714;28;20071;-39
2024/03/20 04:07:06;;;;;;;26.15;13.05;;;4.20;99.90;;;;;;20864008;28;20059;-40
2024/03/20 04:17:07;;;;;;;23.17;13.80;;;4.20;99.90;;;;;;20889990;28;20033;-39
2024/03/20 04:27:10;;;;;;;23.85;13.23;;;4.30;99.90;;;;;;20877819;28;20082;-39
2024/03/20 04:37:12;;;;;;;20.77;11.88;;;4.40;99.90;;;;;;20826504;28;20045;-39
2024/03/20 04:47:14;;;;;;;19.17;11.32;;;4.50;99.90;;;;;;20821703;28;20311;-39
2024/03/20 04:57:16;;;;;;;22.30;11.40;;;4.50;99.90;;;;;;20821109;28;20358;-39
2024/03/20 05:07:20;;;;;;;22.60;11.98;;;4.10;99.90;;;;;;20807201;28;20500;-39
2024/03/20 05:17:22;;;;;;;20.30;11.43;;;3.90;99.90;;;;;;20836208;28;20029;-39
2024/03/20 05:27:27;;;;;;;21.38;11.63;;;3.70;99.90;;;;;;20833437;28;20778;-39
2024/03/20 05:37:34;;;;;;;23.65;12.85;;;3.60;99.90;;;;;;20834747;28;20081;-39
2024/03/20 05:47:36;;;;;;;23.98;12.13;;;3.60;99.90;;;;;;20833750;28;20029;-39
2024/03/20 05:57:38;;;;;;;23.23;12.60;;;4.10;99.90;;;;;;20832818;28;20034;-39
2024/03/20 06:07:40;;;;;;;17.95;11.20;;;4.40;99.90;;;;;;20815281;28;20036;-40
2024/03/20 06:17:43;;;;;;;17.02;10.43;;;5.00;99.90;;;;;;20830760;28;20026;-42
2024/03/20 06:27:45;;;;;;;15.75;10.00;;;5.70;99.90;;;;;;20830448;28;20037;-41
2024/03/20 06:37:50;;;;;;;14.52;8.63;;;6.20;99.90;;;;;;20892102;28;20500;-40
2024/03/20 06:47:52;;;;;;;12.55;8.45;;;6.40;99.90;;;;;;20883248;28;20099;-41
2024/03/20 06:57:54;;;;;;;13.25;8.57;;;6.40;99.90;;;;;;20862605;28;20052;-43
2024/03/20 07:07:56;;;;;;;12.15;8.07;;;6.60;99.90;;;;;;20886441;28;20072;-43
2024/03/20 07:17:59;;;;;;;12.50;8.38;;;6.80;99.90;;;;;;20855514;28;20108;-42
2024/03/20 07:28:01;;;;;;;12.02;7.80;;;6.90;99.90;;;;;;20862034;28;20029;-40
2024/03/20 07:38:09;;;;;;;16.67;10.75;;;7.40;99.90;;;;;;20769799;28;20096;-41
2024/03/20 07:48:12;;;;;;;18.35;12.23;;;8.30;99.90;;;;;;20766106;28;20088;-40
2024/03/20 07:58:17;;;;;;;17.42;11.85;;;8.80;99.90;;;;;;20824237;28;20033;-41
2024/03/20 08:08:19;;;;;;;18.17;12.30;;;9.00;99.90;;;;;;20793148;28;20085;-43
2024/03/20 08:18:21;;;;;;;17.27;11.60;;;9.10;99.90;;;;;;20818581;28;20092;-40
2024/03/20 08:28:23;;;;;;;22.73;15.15;;;9.30;99.90;;;;;;20815860;28;20052;-40
2024/03/20 08:38:32;;;;;;;21.95;14.52;;;9.20;99.90;;;;;;20889188;28;20049;-40
2024/03/20 08:48:34;;;;;;;24.52;15.43;;;9.00;99.90;;;;;;20897782;28;20041;-43
2024/03/20 08:58:36;;;;;;;24.73;14.73;;;8.90;99.90;;;;;;20888191;28;20930;-40
2024/03/20 09:08:38;;;;;;;20.17;13.48;;;8.60;99.90;;;;;;20865269;28;20051;-40
2024/03/20 09:18:40;;;;;;;23.00;13.85;;;8.20;99.90;;;;;;20914489;28;20041;-40
2024/03/20 09:28:42;;;;;;;22.58;15.02;;;8.00;99.90;;;;;;20841088;28;20029;-39
2024/03/20 09:38:44;;;;;;;22.95;14.45;;;7.80;99.90;;;;;;20734481;28;20493;-40
2024/03/20 09:48:52;;;;;;;22.27;15.02;;;7.80;99.90;;;;;;20762598;28;20405;-39
2024/03/20 09:58:54;;;;;;;24.88;14.55;;;8.00;99.90;;;;;;20748369;28;20042;-40
2024/03/20 10:08:56;;;;;;;24.27;15.65;;;8.90;99.90;;;;;;20741439;28;20099;-41
2024/03/20 10:18:59;;;;;;;26.83;16.90;;;9.30;99.90;;;;;;20826426;28;20041;-40
2024/03/20 10:29:10;;;;;;;25.52;15.38;;;8.90;99.90;;;;;;20813186;28;20034;-40
2024/03/20 10:39:17;;;;;;;22.23;14.10;;;8.20;99.90;;;;;;20817918;28;20053;-42
2024/03/20 10:49:25;;;;;;;24.23;15.85;;;8.20;99.90;;;;;;20808542;28;20068;-43
2024/03/20 10:59:32;;;;;;;25.25;15.57;;;8.50;99.90;;;;;;20825076;28;20037;-41
2024/03/20 11:09:37;;;;;;;29.58;16.98;;;9.20;99.90;;;;;;20824800;28;20029;-41
2024/03/20 11:19:39;;;;;;;24.58;15.93;;;9.60;99.90;;;;;;20809984;28;20079;-42
2024/03/20 11:29:41;;;;;;;25.85;16.35;;;9.90;99.90;;;;;;20827160;28;20033;-42
2024/03/20 11:39:44;;;;;;;24.27;15.43;;;10.00;99.90;;;;;;20838670;28;20046;-41
2024/03/20 11:49:49;;;;;;;25.25;14.90;;;10.30;99.90;;;;;;20743918;28;20025;-41
2024/03/20 11:59:51;;;;;;;24.67;16.02;;;10.80;99.90;;;;;;20813647;28;20041;-43
2024/03/20 12:09:56;;;;;;;24.27;15.93;;;11.10;99.90;;;;;;20819204;28;20388;-43
2024/03/20 12:19:58;;;;;;;23.20;15.07;;;10.50;99.90;;;;;;20732354;28;20032;-41
2024/03/20 12:30:03;;;;;;;21.88;14.48;;;10.20;99.90;;;;;;20772409;28;20030;-42
2024/03/20 12:40:08;;;;;;;25.13;14.85;;;10.00;99.90;;;;;;20815761;28;20099;-42
2024/03/20 12:50:11;;;;;;;24.38;15.25;;;10.20;99.90;;;;;;20812134;28;20167;-43
2024/03/20 13:00:16;;;;;;;19.75;13.55;;;11.30;99.90;;;;;;20814908;28;20079;-43
2024/03/20 13:10:17;;;;;;;19.10;12.20;;;11.80;99.90;;;;;;20820396;28;20033;-43
2024/03/20 13:20:20;;;;;;;14.15;9.98;;;12.80;99.90;;;;;;20799366;28;20037;-43
2024/03/20 13:30:22;;;;;;;17.73;11.40;;;13.80;99.90;;;;;;20822105;28;20042;-42
2024/03/20 13:40:36;;;;;;;18.67;13.50;;;12.60;99.90;;;;;;20827570;28;20054;-43
2024/03/20 13:50:38;;;;;;;17.15;12.70;;;11.90;99.90;;;;;;20828673;28;20083;-43
2024/03/20 14:00:40;;;;;;;19.13;13.63;;;12.00;99.90;;;;;;20812446;28;20041;-40
2024/03/20 14:10:41;;;;;;;22.15;13.85;;;11.90;99.90;;;;;;20830573;28;20037;-39
2024/03/20 14:20:45;;;;;;;19.52;13.55;;;11.80;99.90;;;;;;20830247;28;20029;-41
2024/03/20 14:30:46;;;;;;;18.98;13.85;;;11.60;99.90;;;;;;20828239;28;20119;-42
2024/03/20 14:40:48;;;;;;;19.83;12.93;;;11.50;99.90;;;;;;20821173;28;20091;-39
2024/03/20 14:50:51;;;;;;;16.65;12.43;;;11.20;99.90;;;;;;20825586;28;20044;-42
2024/03/20 15:00:53;;;;;;;15.98;11.52;;;10.90;99.90;;;;;;20653729;28;20054;-42
2024/03/20 15:10:55;;;;;;;16.33;11.68;;;10.60;99.90;;;;;;20601350;28;20487;-40
2024/03/20 15:20:57;;;;;;;18.85;12.18;;;10.20;99.90;;;;;;20582584;28;20054;-39
2024/03/20 15:30:59;;;;;;;16.98;11.40;;;9.80;99.90;;;;;;20555104;28;20050;-43
2024/03/20 15:41:00;;;;;;;17.90;10.80;;;9.70;99.90;;;;;;20632411;28;20050;-42
2024/03/20 15:51:03;;;;;;;16.23;10.40;;;9.30;99.90;;;;;;20646766;28;20047;-40
2024/03/20 16:01:12;;;;;;;14.45;10.38;;;8.90;99.90;;;;;;20675411;28;20037;-39
2024/03/20 16:11:14;;;;;;;16.52;10.13;;;8.60;99.90;;;;;;20823532;28;20102;-39
2024/03/20 16:21:16;;;;;;;21.55;12.88;;;8.20;99.90;;;;;;20822958;28;20481;-39
2024/03/20 16:31:18;;;;;;;18.30;11.40;;;7.60;99.90;;;;;;20830672;28;20049;-39
2024/03/20 16:41:20;;;;;;;20.27;12.30;;;7.10;99.90;;;;;;20899339;28;20432;-39
2024/03/20 16:51:21;;;;;;;20.92;13.00;;;6.50;99.90;;;;;;20849235;28;20392;-38
2024/03/20 17:01:23;;;;;;;37.60;22.88;;;5.90;99.90;;;;;;20822643;28;20033;-39
2024/03/20 17:11:25;;;;;;;31.90;19.05;;;5.40;99.90;;;;;;20837229;28;20056;-39
2024/03/20 17:21:27;;;;;;;25.58;15.15;;;5.00;99.90;;;;;;20836398;28;20092;-39
2024/03/20 17:31:29;;;;;;;28.27;16.58;;;4.60;99.90;;;;;;20846237;28;20049;-39
2024/03/20 17:41:31;;;;;;;35.95;18.52;;;4.20;99.90;;;;;;20858032;28;20064;-39
2024/03/20 17:51:32;;;;;;;33.88;17.83;;;3.90;99.90;;;;;;20791800;28;20034;-40
2024/03/20 18:01:34;;;;;;;36.40;17.20;;;3.70;99.90;;;;;;20818641;28;20078;-38
2024/03/20 18:11:39;;;;;;;33.97;18.65;;;3.50;99.90;;;;;;20854558;28;20859;-38
2024/03/20 18:21:41;;;;;;;45.60;21.05;;;3.30;99.90;;;;;;20775401;28;20033;-38
2024/03/20 18:31:46;;;;;;;43.22;21.88;;;3.20;99.90;;;;;;20842985;28;20083;-39
2024/03/20 18:42:01;;;;;;;41.80;21.35;;;3.20;99.90;;;;;;20912276;28;20033;-38
2024/03/20 18:52:07;;;;;;;36.55;19.52;;;3.10;99.90;;;;;;20888450;28;20033;-39
2024/03/20 19:02:11;;;;;;;43.60;20.17;;;3.00;99.90;;;;;;20912585;28;20094;-38
2024/03/20 19:12:13;;;;;;;37.97;19.20;;;2.90;99.90;;;;;;20910755;28;20388;-39
2024/03/20 19:22:15;;;;;;;44.63;22.08;;;2.90;99.90;;;;;;20909693;28;20033;-38
2024/03/20 19:32:17;;;;;;;38.22;19.73;;;3.10;99.90;;;;;;20890311;28;20090;-38
2024/03/20 19:42:19;;;;;;;39.13;20.05;;;3.10;99.90;;;;;;20890459;28;20084;-38
2024/03/20 19:52:22;;;;;;;57.17;26.17;;;2.80;99.90;;;;;;20907447;28;20095;-39
2024/03/20 20:02:24;;;;;;;55.42;25.10;;;2.80;99.90;;;;;;20889869;28;20037;-39
2024/03/20 20:12:26;;;;;;;46.78;23.13;;;2.80;99.90;;;;;;20891329;28;20041;-39
2024/03/20 20:22:28;;;;;;;45.58;21.10;;;2.80;99.90;;;;;;20905574;28;20095;-39
2024/03/20 20:32:30;;;;;;;39.35;20.42;;;2.70;99.90;;;;;;20905446;28;20091;-39
2024/03/20 20:42:32;;;;;;;41.60;20.73;;;2.80;99.90;;;;;;20886059;28;20102;-39
2024/03/20 20:52:34;;;;;;;40.28;19.08;;;2.70;99.90;;;;;;20871177;28;20044;-39
2024/03/20 21:23:16;;;;;;;25.13;13.95;;;2.90;99.90;;;;;;20820827;28;20072;-39
2024/03/20 21:33:19;;;;;;;17.13;9.50;;;2.80;99.90;;;;;;20862627;28;20033;-39
2024/03/20 21:43:21;;;;;;;25.65;13.60;;;3.00;99.90;;;;;;20902525;28;20588;-39
2024/03/20 21:53:22;;;;;;;26.65;15.00;;;3.10;99.90;;;;;;20911689;28;20033;-39
2024/03/20 22:03:25;;;;;;;28.02;14.23;;;3.10;99.90;;;;;;20914803;28;20410;-39
2024/03/20 22:13:27;;;;;;;25.50;13.57;;;3.20;99.90;;;;;;20897375;28;20106;-39
2024/03/20 22:23:29;;;;;;;25.90;13.45;;;3.20;99.90;;;;;;20914673;28;20090;-41
2024/03/20 22:33:31;;;;;;;28.95;15.75;;;3.20;99.90;;;;;;20913951;28;20048;-39
2024/03/20 22:43:34;;;;;;;30.13;16.00;;;3.10;99.90;;;;;;20912871;28;20073;-40
2024/03/20 22:53:36;;;;;;;32.35;16.45;;;3.20;99.90;;;;;;20906207;28;20037;-41
2024/03/20 23:03:38;;;;;;;30.38;16.42;;;3.20;99.90;;;;;;20911757;28;20033;-39
2024/03/20 23:13:40;;;;;;;33.25;17.45;;;3.10;99.90;;;;;;20910555;28;20040;-39
2024/03/20 23:23:41;;;;;;;36.63;18.77;;;3.10;99.90;;;;;;20908840;28;20045;-39
2024/03/20 23:33:43;;;;;;;37.40;19.75;;;3.10;99.90;;;;;;20890935;28;20033;-40
2024/03/20 23:43:45;;;;;;;39.97;19.60;;;2.90;99.90;;;;;;20908486;28;20040;-39
2024/03/20 23:53:47;;;;;;;46.97;22.17;;;2.80;99.90;;;;;;20906043;28;20033;-39
